createdAt,value
2023-03-15T00:01:43.750Z,9.65
2023-03-15T00:05:11.533Z,9.69
2023-03-15T00:08:39.470Z,9.76
2023-03-15T00:11:56.576Z,9.82
2023-03-15T00:15:08.123Z,9.80
2023-03-15T00:18:36.041Z,9.81
2023-03-15T00:22:03.746Z,9.80
2023-03-15T00:25:31.778Z,9.78
2023-03-15T00:28:59.409Z,9.69
2023-03-15T00:32:08.293Z,9.74
2023-03-15T00:34:57.715Z,9.75
2023-03-15T00:38:25.515Z,9.62
2023-03-15T00:41:53.352Z,9.55
2023-03-15T00:45:21.721Z,9.53
2023-03-15T00:48:49.939Z,9.47
2023-03-15T00:52:17.816Z,9.38
2023-03-15T00:55:45.778Z,9.29
2023-03-15T00:59:13.730Z,9.19
2023-03-15T01:02:41.542Z,9.14
2023-03-15T01:06:09.471Z,9.12
2023-03-15T01:09:19.171Z,9.07
2023-03-15T01:12:47.475Z,9.04
2023-03-15T01:16:15.525Z,9.03
2023-03-15T01:19:43.137Z,9.01
2023-03-15T01:23:10.887Z,9.02
2023-03-15T01:26:38.649Z,9.04
2023-03-15T01:30:01.798Z,9.08
2023-03-15T01:33:25.532Z,9.08
2023-03-15T01:36:37.827Z,9.02
2023-03-15T01:40:05.641Z,9.01
2023-03-15T01:43:33.645Z,9.06
2023-03-15T01:46:23.594Z,9.06
2023-03-15T01:49:31.649Z,9.08
2023-03-15T01:52:40.381Z,9.11
2023-03-15T01:56:08.371Z,9.11
2023-03-15T01:59:17.161Z,9.10
2023-03-15T02:02:45.132Z,9.04
2023-03-15T02:06:12.977Z,9.02
2023-03-15T02:09:40.773Z,9.02
2023-03-15T02:13:08.545Z,9.00
2023-03-15T02:16:36.327Z,8.98
2023-03-15T02:20:04.133Z,8.93
2023-03-15T02:23:13.350Z,8.92
2023-03-15T02:26:41.212Z,8.94
2023-03-15T02:30:09.174Z,8.90
2023-03-15T02:33:37.280Z,8.91
2023-03-15T02:36:47.226Z,8.94
2023-03-15T02:40:15.120Z,8.94
2023-03-15T02:43:23.795Z,8.86
2023-03-15T02:46:32.217Z,8.83
2023-03-15T02:50:00.554Z,8.79
2023-03-15T02:53:28.330Z,8.73
2023-03-15T02:56:56.276Z,8.72
2023-03-15T02:59:26.949Z,8.74
2023-03-15T03:02:35.923Z,8.77
2023-03-15T03:06:03.654Z,8.79
2023-03-15T03:09:11.993Z,8.85
2023-03-15T03:12:40.050Z,8.91
2023-03-15T03:16:14.087Z,8.94
2023-03-15T03:19:41.957Z,8.94
2023-03-15T03:22:33.036Z,8.98
2023-03-15T03:26:01.124Z,9.01
2023-03-15T03:29:28.884Z,9.06
2023-03-15T03:32:38.154Z,9.06
2023-03-15T03:36:06.111Z,9.07
2023-03-15T03:39:34.102Z,9.07
2023-03-15T03:42:43.172Z,9.11
2023-03-15T03:46:11.133Z,9.19
2023-03-15T03:49:20.216Z,9.22
2023-03-15T03:52:48.183Z,9.20
2023-03-15T03:56:16.037Z,9.20
2023-03-15T03:59:12.634Z,9.23
2023-03-15T04:02:40.435Z,9.27
2023-03-15T04:06:08.174Z,9.29
2023-03-15T04:09:36.027Z,9.27
2023-03-15T04:13:03.848Z,9.23
2023-03-15T04:16:31.587Z,9.18
2023-03-15T04:19:59.432Z,9.11
2023-03-15T04:23:27.185Z,9.02
2023-03-15T04:27:10.274Z,8.94
2023-03-15T04:30:20.704Z,8.89
2023-03-15T04:33:48.764Z,8.80
2023-03-15T04:37:17.206Z,8.69
2023-03-15T04:40:54.063Z,8.62
2023-03-15T04:44:20.618Z,8.53
2023-03-15T04:47:54.807Z,8.43
2023-03-15T04:51:06.489Z,8.41
2023-03-15T04:54:15.821Z,8.40
2023-03-15T04:57:42.451Z,8.38
2023-03-15T05:01:10.529Z,8.40
2023-03-15T05:04:47.737Z,8.38
2023-03-15T05:08:15.609Z,8.30
2023-03-15T05:11:43.802Z,8.28
2023-03-15T05:15:18.776Z,8.26
2023-03-15T05:18:52.384Z,8.22
2023-03-15T05:22:20.377Z,8.17
2023-03-15T05:26:07.013Z,8.17
2023-03-15T05:29:50.243Z,8.16
2023-03-15T05:33:24.400Z,8.19
2023-03-15T05:36:51.222Z,8.23
2023-03-15T05:39:52.272Z,8.26
2023-03-15T05:43:26.227Z,8.33
2023-03-15T05:46:35.686Z,8.38
2023-03-15T05:50:02.306Z,8.46
2023-03-15T05:53:46.440Z,8.56
2023-03-15T05:57:13.339Z,8.66
2023-03-15T06:00:41.484Z,8.71
2023-03-15T06:03:36.653Z,8.82
2023-03-15T06:07:04.254Z,8.91
2023-03-15T06:10:12.942Z,8.99
2023-03-15T06:13:40.940Z,9.15
2023-03-15T06:17:08.661Z,9.31
2023-03-15T06:20:36.436Z,9.41
2023-03-15T06:24:04.050Z,9.47
2023-03-15T06:27:31.799Z,9.50
2023-03-15T06:30:40.644Z,9.55
2023-03-15T06:34:08.412Z,9.67
2023-03-15T06:37:28.964Z,9.74
2023-03-15T06:40:45.630Z,9.78
2023-03-15T06:44:13.368Z,9.84
2023-03-15T06:47:41.226Z,9.77
2023-03-15T06:51:08.881Z,9.79
2023-03-15T06:54:36.613Z,9.74
2023-03-15T06:58:05.397Z,9.66
2023-03-15T07:00:54.816Z,9.67
2023-03-15T07:04:03.323Z,9.78
2023-03-15T07:07:31.367Z,9.83
2023-03-15T07:10:59.026Z,9.84
2023-03-15T07:14:26.977Z,9.84
2023-03-15T07:17:54.831Z,9.80
2023-03-15T07:20:51.525Z,9.84
2023-03-15T07:24:00.358Z,9.90
2023-03-15T07:27:28.345Z,9.97
2023-03-15T07:30:56.265Z,9.91
2023-03-15T07:33:30.081Z,9.97
2023-03-15T07:36:05.704Z,9.97
2023-03-15T07:39:05.490Z,10.05
2023-03-15T07:42:07.086Z,10.12
2023-03-15T07:45:34.989Z,10.13
2023-03-15T07:48:32.996Z,10.29
2023-03-15T07:51:24.944Z,10.33
2023-03-15T07:54:52.676Z,10.32
2023-03-15T07:58:20.591Z,10.39
2023-03-15T08:01:44.244Z,10.48
2023-03-15T08:05:07.791Z,10.55
2023-03-15T08:08:35.707Z,10.69
2023-03-15T08:11:51.417Z,10.64
2023-03-15T08:15:00.002Z,10.66
2023-03-15T08:18:08.746Z,10.67
2023-03-15T08:21:36.643Z,10.60
2023-03-15T08:25:04.517Z,10.74
2023-03-15T08:27:53.263Z,10.84
2023-03-15T08:31:16.462Z,10.86
2023-03-15T08:34:44.249Z,10.93
2023-03-15T08:37:33.562Z,10.96
2023-03-15T08:40:42.484Z,11.08
2023-03-15T08:43:37.508Z,11.20
2023-03-15T08:47:05.342Z,11.35
2023-03-15T08:49:54.538Z,11.40
2023-03-15T08:53:22.288Z,11.54
2023-03-15T08:56:50.262Z,11.79
2023-03-15T09:00:18.082Z,11.78
2023-03-15T09:03:08.864Z,11.87
2023-03-15T09:06:36.833Z,11.93
2023-03-15T09:10:05.655Z,11.83
2023-03-15T09:13:32.917Z,11.87
2023-03-15T09:17:00.685Z,11.95
2023-03-15T09:20:24.410Z,12.05
2023-03-15T09:23:52.480Z,12.24
2023-03-15T09:27:20.249Z,12.38
2023-03-15T09:30:36.203Z,12.67
2023-03-15T09:33:40.540Z,12.93
2023-03-15T09:36:49.441Z,13.22
2023-03-15T09:40:17.447Z,13.64
2023-03-15T09:42:59.584Z,13.83
2023-03-15T09:45:49.212Z,13.84
2023-03-15T09:48:41.014Z,14.19
2023-03-15T09:51:53.886Z,14.58
2023-03-15T09:55:21.601Z,14.61
2023-03-15T09:58:49.446Z,14.83
2023-03-15T10:02:09.740Z,14.74
2023-03-15T10:05:19.727Z,14.77
2023-03-15T10:08:47.568Z,14.88
2023-03-15T10:12:07.512Z,14.94
2023-03-15T10:15:12.121Z,15.01
2023-03-15T10:18:22.466Z,15.08
2023-03-15T10:21:50.396Z,15.04
2023-03-15T10:24:27.679Z,15.17
2023-03-15T10:27:20.190Z,15.04
2023-03-15T10:30:30.439Z,14.97
2023-03-15T10:33:54.512Z,14.91
2023-03-15T10:36:33.676Z,14.93
2023-03-15T10:39:27.641Z,15.16
2023-03-15T10:42:21.596Z,15.23
2023-03-15T10:45:06.392Z,15.10
2023-03-15T10:48:04.309Z,15.09
2023-03-15T10:51:18.589Z,15.20
2023-03-15T10:54:48.129Z,15.20
2023-03-15T10:57:36.243Z,15.31
2023-03-15T11:01:04.290Z,15.37
2023-03-15T11:04:13.197Z,15.09
2023-03-15T11:07:41.289Z,15.25
2023-03-15T11:10:50.202Z,15.38
2023-03-15T11:14:18.026Z,15.28
2023-03-15T11:17:46.058Z,14.87
2023-03-15T11:20:36.712Z,14.76
2023-03-15T11:23:34.129Z,14.40
2023-03-15T11:26:43.157Z,14.42
2023-03-15T11:30:12.020Z,14.32
2023-03-15T11:33:18.152Z,14.22
2023-03-15T11:36:07.432Z,14.22
2023-03-15T11:39:35.450Z,13.75
2023-03-15T11:42:05.811Z,13.64
2023-03-15T11:45:21.438Z,13.41
2023-03-15T11:49:07.985Z,13.32
2023-03-15T11:52:36.248Z,13.14
2023-03-15T11:55:59.484Z,12.86
2023-03-15T11:58:55.363Z,12.74
2023-03-15T12:02:11.154Z,12.70
2023-03-15T12:05:39.890Z,12.61
2023-03-15T12:09:07.760Z,12.55
2023-03-15T12:12:16.166Z,12.36
2023-03-15T12:15:28.373Z,12.18
2023-03-15T12:18:44.064Z,12.15
2023-03-15T12:22:09.045Z,12.21
2023-03-15T12:24:57.766Z,12.16
2023-03-15T12:28:15.287Z,12.03
2023-03-15T12:31:05.727Z,11.98
2023-03-15T12:33:54.118Z,11.80
2023-03-15T12:36:43.208Z,11.73
2023-03-15T12:40:02.755Z,11.59
2023-03-15T12:43:29.173Z,11.54
2023-03-15T12:46:57.003Z,11.41
2023-03-15T12:50:25.982Z,11.21
2023-03-15T12:53:34.782Z,11.09
2023-03-15T12:57:02.671Z,10.88
2023-03-15T13:00:26.839Z,10.81
2023-03-15T13:03:18.092Z,10.69
2023-03-15T13:06:27.913Z,10.56
2023-03-15T13:09:55.647Z,10.34
2023-03-15T13:13:23.480Z,10.21
2023-03-15T13:16:32.452Z,10.16
2023-03-15T13:19:41.499Z,10.17
2023-03-15T13:22:27.986Z,10.11
2023-03-15T13:25:38.096Z,10.07
2023-03-15T13:28:54.166Z,10.07
2023-03-15T13:32:24.180Z,10.17
2023-03-15T13:35:34.284Z,10.20
2023-03-15T13:39:02.051Z,10.37
2023-03-15T13:42:11.790Z,10.39
2023-03-15T13:45:39.554Z,10.42
2023-03-15T13:48:49.549Z,10.43
2023-03-15T13:52:17.373Z,10.53
2023-03-15T13:55:26.739Z,10.55
2023-03-15T13:58:15.901Z,10.60
2023-03-15T14:01:24.690Z,10.66
2023-03-15T14:04:20.315Z,10.71
2023-03-15T14:07:48.419Z,10.49
2023-03-15T14:10:44.850Z,10.28
2023-03-15T14:13:53.668Z,9.99
2023-03-15T14:17:21.770Z,9.70
2023-03-15T14:20:51.266Z,9.42
2023-03-15T14:24:19.225Z,9.11
2023-03-15T14:27:55.812Z,8.77
2023-03-15T14:31:23.795Z,8.60
2023-03-15T14:34:52.171Z,8.50
2023-03-15T14:38:19.938Z,8.26
2023-03-15T14:41:48.281Z,8.06
2023-03-15T14:44:57.188Z,7.96
2023-03-15T14:48:24.855Z,7.83
2023-03-15T14:51:52.738Z,7.71
2023-03-15T14:55:20.629Z,7.58
2023-03-15T14:58:49.567Z,7.50
2023-03-15T15:01:58.453Z,7.32
2023-03-15T15:04:47.619Z,7.16
2023-03-15T15:08:15.776Z,6.98
2023-03-15T15:11:43.986Z,6.74
2023-03-15T15:15:11.824Z,6.63
2023-03-15T15:18:39.880Z,6.55
2023-03-15T15:22:07.482Z,6.35
2023-03-15T15:24:56.888Z,6.05
2023-03-15T15:28:34.517Z,5.82
2023-03-15T15:31:52.670Z,5.68
2023-03-15T15:35:21.693Z,5.55
2023-03-15T15:38:49.531Z,5.39
2023-03-15T15:42:18.950Z,5.21
2023-03-15T15:45:27.097Z,5.09
2023-03-15T15:48:55.101Z,4.96
2023-03-15T15:52:22.786Z,4.94
2023-03-15T15:55:50.926Z,4.78
2023-03-15T15:59:18.830Z,4.71
2023-03-15T16:02:46.709Z,4.62
2023-03-15T16:06:14.287Z,4.50
2023-03-15T16:09:42.388Z,4.46
2023-03-15T16:13:10.411Z,4.32
2023-03-15T16:16:19.488Z,4.24
2023-03-15T16:19:47.434Z,4.20
2023-03-15T16:23:15.378Z,4.17
2023-03-15T16:26:43.124Z,4.09
2023-03-15T16:30:10.853Z,4.07
2023-03-15T16:33:38.884Z,3.95
2023-03-15T16:37:06.793Z,3.83
2023-03-15T16:40:34.585Z,3.76
2023-03-15T16:44:02.428Z,3.75
2023-03-15T16:47:30.703Z,3.71
2023-03-15T16:50:59.597Z,3.67
2023-03-15T16:54:40.689Z,3.67
2023-03-15T16:57:55.948Z,3.61
2023-03-15T17:01:05.456Z,3.58
2023-03-15T17:04:33.375Z,3.64
2023-03-15T17:08:01.222Z,3.63
2023-03-15T17:11:29.754Z,3.49
2023-03-15T17:14:57.671Z,3.49
2023-03-15T17:18:06.538Z,3.50
2023-03-15T17:21:34.608Z,3.52
2023-03-15T17:25:02.752Z,3.49
2023-03-15T17:28:30.759Z,3.43
2023-03-15T17:31:58.435Z,3.38
2023-03-15T17:35:26.006Z,3.36
2023-03-15T17:38:53.892Z,3.39
2023-03-15T17:42:21.873Z,3.37
2023-03-15T17:45:51.262Z,3.29
2023-03-15T17:49:19.266Z,3.24
2023-03-15T17:52:47.026Z,3.16
2023-03-15T17:55:55.162Z,3.12
2023-03-15T17:59:06.194Z,3.09
2023-03-15T18:02:20.378Z,3.01
2023-03-15T18:05:33.651Z,3.01
2023-03-15T18:09:01.774Z,2.93
2023-03-15T18:12:29.677Z,2.84
2023-03-15T18:15:57.841Z,2.69
2023-03-15T18:19:25.868Z,2.56
2023-03-15T18:22:54.917Z,2.53
2023-03-15T18:26:22.893Z,2.43
2023-03-15T18:29:50.613Z,2.40
2023-03-15T18:33:19.883Z,2.34
2023-03-15T18:36:47.820Z,2.40
2023-03-15T18:40:16.008Z,2.34
2023-03-15T18:43:44.409Z,2.30
2023-03-15T18:46:33.363Z,2.30
2023-03-15T18:49:24.159Z,2.28
2023-03-15T18:52:51.948Z,2.27
2023-03-15T18:56:21.015Z,2.22
2023-03-15T18:59:49.000Z,2.12
2023-03-15T19:02:58.127Z,2.11
2023-03-15T19:06:26.100Z,2.08
2023-03-15T19:09:54.101Z,2.06
2023-03-15T19:13:22.497Z,2.04
2023-03-15T19:16:50.760Z,2.01
2023-03-15T19:20:18.605Z,2.01
2023-03-15T19:23:46.588Z,1.95
2023-03-15T19:26:55.631Z,1.95
2023-03-15T19:29:48.768Z,1.98
2023-03-15T19:33:16.685Z,1.96
2023-03-15T19:36:45.573Z,2.01
2023-03-15T19:40:13.552Z,2.00
2023-03-15T19:43:23.418Z,1.99
2023-03-15T19:46:51.779Z,1.98
2023-03-15T19:50:19.847Z,1.95
2023-03-15T19:53:47.676Z,1.96
2023-03-15T19:57:15.881Z,1.99
2023-03-15T20:00:43.818Z,2.00
2023-03-15T20:04:12.931Z,1.98
2023-03-15T20:07:21.251Z,2.02
2023-03-15T20:10:49.037Z,1.95
2023-03-15T20:14:16.843Z,1.97
2023-03-15T20:17:45.900Z,1.93
2023-03-15T20:21:14.103Z,1.91
2023-03-15T20:24:42.117Z,1.91
2023-03-15T20:28:10.600Z,1.87
2023-03-15T20:31:38.394Z,1.82
2023-03-15T20:35:06.282Z,1.79
2023-03-15T20:37:55.990Z,1.78
2023-03-15T20:41:24.834Z,1.73
2023-03-15T20:44:52.756Z,1.76
2023-03-15T20:48:22.370Z,1.70
2023-03-15T20:51:50.327Z,1.67
2023-03-15T20:55:19.106Z,1.71
2023-03-15T20:58:08.254Z,1.69
2023-03-15T21:01:36.163Z,1.67
2023-03-15T21:04:46.175Z,1.71
2023-03-15T21:08:14.283Z,1.70
2023-03-15T21:11:24.197Z,1.69
2023-03-15T21:14:52.063Z,1.67
2023-03-15T21:18:20.199Z,1.65
2023-03-15T21:21:48.184Z,1.62
2023-03-15T21:25:16.219Z,1.63
2023-03-15T21:28:44.393Z,1.57
2023-03-15T21:32:12.469Z,1.55
2023-03-15T21:35:40.670Z,1.56
2023-03-15T21:39:08.628Z,1.49
2023-03-15T21:42:17.428Z,1.49
2023-03-15T21:45:45.362Z,1.52
2023-03-15T21:49:13.259Z,1.49
2023-03-15T21:52:41.626Z,1.48
2023-03-15T21:55:50.575Z,1.43
2023-03-15T21:59:18.305Z,1.43
2023-03-15T22:02:46.674Z,1.39
2023-03-15T22:06:14.412Z,1.39
2023-03-15T22:09:26.147Z,1.39
2023-03-15T22:12:22.668Z,1.40
2023-03-15T22:15:13.878Z,1.40
2023-03-15T22:18:23.029Z,1.33
2023-03-15T22:21:52.057Z,1.31
2023-03-15T22:25:19.766Z,1.31
2023-03-15T22:28:47.574Z,1.32
2023-03-15T22:32:16.475Z,1.37
2023-03-15T22:35:44.383Z,1.34
2023-03-15T22:39:13.684Z,1.32
2023-03-15T22:42:41.510Z,1.32
2023-03-15T22:46:09.584Z,1.38
2023-03-15T22:49:17.955Z,1.39
2023-03-15T22:52:45.977Z,1.40
2023-03-15T22:55:54.268Z,1.44
2023-03-15T22:59:22.101Z,1.46
2023-03-15T23:02:50.015Z,1.49
2023-03-15T23:06:17.819Z,1.50
2023-03-15T23:09:45.568Z,1.50
2023-03-15T23:13:13.321Z,1.52
2023-03-15T23:16:41.273Z,1.53
2023-03-15T23:19:50.979Z,1.52
2023-03-15T23:23:20.055Z,1.51
2023-03-15T23:26:47.885Z,1.50
2023-03-15T23:30:15.752Z,1.49
2023-03-15T23:33:12.706Z,1.47
2023-03-15T23:36:42.526Z,1.45
2023-03-15T23:40:09.194Z,1.42
2023-03-15T23:43:37.152Z,1.40
2023-03-15T23:47:07.060Z,1.40
2023-03-15T23:50:34.755Z,1.42
2023-03-15T23:54:02.734Z,1.40
2023-03-15T23:57:30.521Z,1.38
